• Join FlightAware (Why Join?)
  • Login
  • US Flag 
05:12AM EDT


 

Airport Tracker/Info


-or-


 

Live Flight TrackerFlight Track Log ✈ N201LP ✈ 30-Mar-2013 ✈ KLWB - KMTN

Flight Track Log - Related Links

Times and Time Zones

All times are in EDT time to prevent confusion due to time zone crossing. See the N201LP flight status page for this flight to view local times or setup timezone preferences in your user account.

Time Position Orientation Groundspeed Altitude Reporting Facility
EDT Latitude Longitude Course Direction KTS MPH feet Rate Location/Type
11:20AM 37.8728 -80.3378 95° East 136 157 3,900  Level Washington Center
11:21AM 37.8783 -80.3039 78° East 107 123 4,200 300 Climbing Washington Center
11:22AM 37.9515 -80.1613 88° East  Level Estimated
11:22AM 37.8858 -80.2700 74° East 99 114 4,600  Level Washington Center
11:23AM 37.9477 -80.1083 95° East  Level FlightAware Approximate
11:23AM 37.8856 -80.2281 90° East 106 122 5,200  Level Washington Center
11:24AM 37.8767 -80.1853 105° East 118 136 5,700 480 Climbing Washington Center
11:25AM 37.8681 -80.1400 104° East 124 143 6,200 540 Climbing Washington Center
11:26AM 37.8883 -80.0992 58° Northeast 119 137 6,800 360 Climbing Washington Center
11:27AM 37.9169 -80.0561 50° Northeast 132 152 7,000 60 Climbing Washington Center
11:28AM 37.9439 -80.0103 53° Northeast 151 174 7,000  Level Washington Center
11:29AM 37.9706 -79.9644 54° Northeast 156 180 7,100  Climbing Washington Center
11:30AM 38.0011 -79.9242 46° Northeast 156 180 7,100 -60 Level Washington Center
11:31AM 38.0297 -79.8861 46° Northeast 156 180 7,000 -60 Descending Washington Center
11:32AM 38.0583 -79.8456 48° Northeast 156 180 7,000  Level Washington Center
11:33AM 38.0889 -79.8053 46° Northeast 156 180 7,000  Level Washington Center
11:34AM 38.1175 -79.7647 48° Northeast 156 180 7,100  Climbing Washington Center
11:35AM 38.1481 -79.7242 46° Northeast 156 180 7,100  Level Washington Center
11:36AM 38.1808 -79.6756 49° Northeast 156 180 7,100 -60 Level Washington Center
11:37AM 38.2072 -79.6347 51° Northeast 156 180 7,000 -60 Descending Washington Center
11:38AM 38.2378 -79.5942 46° Northeast 156 180 7,000 -60 Level Washington Center
11:39AM 38.2644 -79.5506 52° Northeast 156 180 6,900  Descending Washington Center
11:40AM 38.2906 -79.5150 47° Northeast 156 180 7,000  Climbing Washington Center
11:41AM 38.3172 -79.4689 54° Northeast 156 180 7,000  Level Washington Center
11:42AM 38.3456 -79.4278 49° Northeast 156 180 7,000  Level Washington Center
11:43AM 38.3739 -79.3897 46° Northeast 156 180 7,100  Climbing Washington Center
11:44AM 38.4067 -79.3436 48° Northeast 156 180 7,100 -60 Level Washington Center
11:45AM 38.4372 -79.3000 48° Northeast 156 180 7,000 -60 Descending Washington Center
11:46AM 38.4656 -79.2564 50° Northeast 156 180 7,000 -60 Level Washington Center
11:47AM 38.4919 -79.2100 54° Northeast 156 180 6,900  Descending Washington Center
11:48AM 38.5183 -79.1686 51° Northeast 156 180 7,000  Climbing Washington Center
11:49AM 38.5406 -79.1194 60° Northeast 156 180 7,000  Level Washington Center
11:50AM 38.5711 -79.0703 52° Northeast 156 180 7,100  Climbing Washington Center
11:51AM 38.5994 -79.0267 50° Northeast 156 180 7,000 -60 Descending Washington Center
11:52AM 38.6258 -78.9800 54° Northeast 156 180 7,000  Level Washington Center
11:53AM 38.6481 -78.9383 56° Northeast 150 173 7,000  Level Washington Center
11:54AM 38.6764 -78.8944 50° Northeast 150 173 7,000  Level Washington Center
11:55AM 38.7025 -78.8478 54° Northeast 150 173 7,100  Climbing Washington Center
11:56AM 38.7308 -78.8039 50° Northeast 150 173 7,000 -60 Descending Washington Center
11:57AM 38.7653 -78.7681 39° Northeast 155 178 7,000  Level Washington Center
11:58AM 38.7975 -78.7267 45° Northeast 155 178 7,000  Level Washington Center
11:59AM 38.8256 -78.6853 49° Northeast 155 178 7,000  Level Washington Center
12:00PM 38.8561 -78.6414 48° Northeast 160 184 7,000  Level Washington Center
12:01PM 38.8864 -78.5972 49° Northeast 160 184 7,000 -60 Level Washington Center
12:02PM 38.9144 -78.5531 51° Northeast 160 184 6,900  Descending Washington Center
12:03PM 38.9447 -78.5117 47° Northeast 160 184 7,000  Climbing Washington Center
12:04PM 38.9708 -78.4697 51° Northeast 155 178 7,000  Level Washington Center
12:05PM 39.0008 -78.4256 49° Northeast 155 178 7,100  Climbing Washington Center
12:06PM 39.0269 -78.3839 51° Northeast 155 178 7,100  Level Washington Center
12:07PM 39.0550 -78.3394 51° Northeast 160 184 7,100 -60 Level Washington Center
12:08PM 39.0853 -78.2953 49° Northeast 160 184 7,000 -60 Descending Washington Center
12:09PM 39.1133 -78.2481 53° Northeast 160 184 7,000  Level Washington Center
12:10PM 39.1394 -78.2008 55° Northeast 160 184 7,000  Level Washington Center
12:11PM 39.1653 -78.1589 52° Northeast 155 178 7,100  Climbing Washington Center
12:12PM 39.1914 -78.1117 54° Northeast 155 178 7,100 -60 Level Washington Center
12:13PM 39.2236 -78.0672 47° Northeast 155 178 7,000 -360 Descending Washington Center
12:16PM 39.3000 -77.9500 50° Northeast 179 206 5,900 -480 Descending Potomac TRACON
12:17PM 39.3333 -77.9000 49° Northeast 174 200 5,400 -480 Descending Potomac TRACON
12:18PM 39.3667 -77.8500 49° Northeast 172 198 5,000 -300 Descending Potomac TRACON
12:19PM 39.3833 -77.8000 67° East 162 186 4,900  Descending Potomac TRACON
12:20PM 39.4000 -77.7333 72° East 159 183 5,000 -60 Climbing Potomac TRACON
12:21PM 39.4000 -77.6833 90° East 161 185 4,800 -360 Descending Potomac TRACON
12:22PM 39.4000 -77.6167 90° East 167 192 4,300 -420 Descending Potomac TRACON
12:23PM 39.4167 -77.5667 67° East 169 194 4,000 -300 Descending Potomac TRACON
12:24PM 39.4167 -77.5167 90° East 164 189 3,800  Descending Potomac TRACON
12:24PM 39.4333 -77.4667 67° East 150 173 4,100 60 Climbing Potomac TRACON
12:25PM 39.4333 -77.4167 90° East 151 174 4,000 -60 Descending Potomac TRACON
12:26PM 39.4500 -77.3667 67° East 147 169 4,000  Level Potomac TRACON
12:27PM 39.4500 -77.3167 90° East 141 162 4,100  Climbing Potomac TRACON
12:28PM 39.4500 -77.2667 90° East 144 166 4,000 -60 Descending Potomac TRACON
12:29PM 39.4667 -77.2167 67° East 144 166 4,000  Level Potomac TRACON
12:30PM 39.4667 -77.1667 90° East 151 174 4,000  Level Potomac TRACON
12:31PM 39.4833 -77.1000 72° East 149 171 4,100  Climbing Potomac TRACON
12:32PM 39.4833 -77.0500 90° East 163 188 4,000 -120 Descending Potomac TRACON
12:33PM 39.4833 -76.9833 90° East 161 185 3,900 -120 Descending Potomac TRACON
12:34PM 39.4667 -76.9333 113° Southeast 153 176 3,800 -300 Descending Potomac TRACON
12:35PM 39.4667 -76.8833 90° East 162 186 3,400 -480 Descending Potomac TRACON
12:36PM 39.4667 -76.8167 90° East 159 183 2,900 -300 Descending Potomac TRACON
12:37PM 39.4667 -76.7667 90° East 152 175 2,900  Level Potomac TRACON
12:38PM 39.4500 -76.7167 113° Southeast 153 176 3,000  Climbing Potomac TRACON
12:39PM 39.4333 -76.6667 113° Southeast 157 181 3,000 120 Level Potomac TRACON
12:40PM 39.4167 -76.6333 123° Southeast 155 178 3,300  Climbing Potomac TRACON
12:41PM 39.3833 -76.5833 131° Southeast 160 184 3,100 -300 Descending Potomac TRACON
12:42PM 39.3500 -76.5500 142° Southeast 151 174 2,800 -60 Descending Potomac TRACON
12:43PM 39.3167 -76.5000 131° Southeast 140 161 3,000  Climbing Potomac TRACON
12:44PM 39.3000 -76.4667 123° Southeast 143 165 2,800 -540 Descending Potomac TRACON
12:45PM 39.2667 -76.4333 142° Southeast 155 178 2,000 -840 Descending Potomac TRACON
12:46PM 39.3000 -76.3833 49° Northeast 138 159 1,200 -840 Descending Potomac TRACON
12:48PM 39.3167 -76.4000 322° Northwest  Level FlightAware Approximate
12:55PM 39.3257 -76.4138 322° Northwest  Level Estimated
12:56PM 39.3257 -76.4138 322° Northwest  Level Estimated
12:57PM 39.3257 -76.4138 322° Northwest  Level Estimated
12:58PM 39.3257 -76.4138 322° Northwest  Level Estimated
12:59PM 39.3257 -76.4138 322° Northwest  Level Estimated